sensor_id;sensor_type;location;lat;lon;timestamp;P1;durP1;ratioP1;P2;durP2;ratioP2
64210;SDS011;73293;48.538;14.354;2024-02-04T13:42:24;3.90;;;2.80;;
64210;SDS011;73293;48.538;14.354;2024-02-04T13:43:06;4.30;;;2.90;;
64210;SDS011;73293;48.538;14.354;2024-02-04T13:43:40;5.20;;;3.40;;
64210;SDS011;73293;48.538;14.354;2024-02-04T13:45:29;7.00;;;4.20;;
64210;SDS011;73293;48.538;14.354;2024-02-04T13:46:05;4.00;;;3.00;;
64210;SDS011;73293;48.538;14.354;2024-02-04T13:46:39;4.00;;;2.60;;
64210;SDS011;73293;48.538;14.354;2024-02-04T13:47:16;5.60;;;3.80;;
64210;SDS011;73293;48.538;14.354;2024-02-04T13:47:50;4.10;;;2.60;;
64210;SDS011;73293;48.538;14.354;2024-02-04T13:49:12;4.30;;;2.80;;
64210;SDS011;73293;48.538;14.354;2024-02-04T13:49:46;4.30;;;3.10;;
64210;SDS011;73293;48.538;14.354;2024-02-04T13:50:20;4.20;;;2.50;;
64210;SDS011;73293;48.538;14.354;2024-02-04T13:50:54;3.70;;;2.40;;
64210;SDS011;73293;48.538;14.354;2024-02-04T13:51:29;4.50;;;2.70;;
64210;SDS011;73293;48.538;14.354;2024-02-04T13:53:00;3.80;;;2.40;;
64210;SDS011;73293;48.538;14.354;2024-02-04T13:53:34;3.30;;;2.30;;
64210;SDS011;73293;48.538;14.354;2024-02-04T13:54:08;3.20;;;2.40;;
64210;SDS011;73293;48.538;14.354;2024-02-04T13:54:44;3.70;;;1.90;;
64210;SDS011;73293;48.538;14.354;2024-02-04T13:55:18;3.40;;;2.40;;
64210;SDS011;73293;48.538;14.354;2024-02-04T13:56:42;4.50;;;2.10;;
64210;SDS011;73293;48.538;14.354;2024-02-04T13:57:17;3.50;;;2.20;;
64210;SDS011;73293;48.538;14.354;2024-02-04T13:57:52;3.30;;;2.30;;
64210;SDS011;73293;48.538;14.354;2024-02-04T13:58:28;3.30;;;2.30;;
64210;SDS011;73293;48.538;14.354;2024-02-04T13:59:01;3.60;;;2.60;;
64210;SDS011;73293;48.538;14.354;2024-02-04T14:00:18;3.10;;;2.10;;
64210;SDS011;73293;48.538;14.354;2024-02-04T14:00:52;2.90;;;2.00;;
64210;SDS011;73293;48.538;14.354;2024-02-04T14:01:29;3.10;;;1.90;;
64210;SDS011;73293;48.538;14.354;2024-02-04T14:02:08;2.80;;;2.00;;
64210;SDS011;73293;48.538;14.354;2024-02-04T14:02:43;2.60;;;1.70;;
64210;SDS011;73293;48.538;14.354;2024-02-04T14:04:09;2.80;;;1.60;;
64210;SDS011;73293;48.538;14.354;2024-02-04T14:04:44;2.50;;;1.70;;
64210;SDS011;73293;48.538;14.354;2024-02-04T14:05:18;2.60;;;1.80;;
64210;SDS011;73293;48.538;14.354;2024-02-04T14:05:52;3.40;;;1.80;;
64210;SDS011;73293;48.538;14.354;2024-02-04T14:08:01;2.30;;;1.40;;
64210;SDS011;73293;48.538;14.354;2024-02-04T14:08:37;2.70;;;1.50;;
64210;SDS011;73293;48.538;14.354;2024-02-04T14:09:11;3.20;;;1.90;;
64210;SDS011;73293;48.538;14.354;2024-02-04T14:09:48;3.20;;;1.70;;
64210;SDS011;73293;48.538;14.354;2024-02-04T14:11:22;2.50;;;1.60;;
64210;SDS011;73293;48.538;14.354;2024-02-04T14:11:56;2.50;;;1.90;;
64210;SDS011;73293;48.538;14.354;2024-02-04T14:12:31;2.60;;;1.80;;
64210;SDS011;73293;48.538;14.354;2024-02-04T14:13:05;2.50;;;1.50;;
64210;SDS011;73293;48.538;14.354;2024-02-04T14:13:43;2.10;;;1.40;;
64210;SDS011;73293;48.538;14.354;2024-02-04T14:15:01;2.40;;;1.50;;
64210;SDS011;73293;48.538;14.354;2024-02-04T14:15:35;2.40;;;1.40;;
64210;SDS011;73293;48.538;14.354;2024-02-04T14:16:09;2.50;;;1.40;;
64210;SDS011;73293;48.538;14.354;2024-02-04T14:16:43;2.40;;;1.70;;
64210;SDS011;73293;48.538;14.354;2024-02-04T14:17:19;2.60;;;1.60;;
64210;SDS011;73293;48.538;14.354;2024-02-04T14:18:43;2.50;;;1.50;;
64210;SDS011;73293;48.538;14.354;2024-02-04T14:19:22;3.90;;;1.40;;
64210;SDS011;73293;48.538;14.354;2024-02-04T14:19:56;2.40;;;1.70;;
64210;SDS011;73293;48.538;14.354;2024-02-04T14:20:32;3.00;;;1.40;;
64210;SDS011;73293;48.538;14.354;2024-02-04T14:21:06;1.90;;;1.10;;
64210;SDS011;73293;48.538;14.354;2024-02-04T14:22:24;2.10;;;1.30;;
64210;SDS011;73293;48.538;14.354;2024-02-04T14:23:01;2.80;;;1.50;;
64210;SDS011;73293;48.538;14.354;2024-02-04T14:23:35;2.00;;;1.20;;
64210;SDS011;73293;48.538;14.354;2024-02-04T14:24:09;2.20;;;1.40;;
64210;SDS011;73293;48.538;14.354;2024-02-04T14:24:45;1.70;;;1.10;;
64210;SDS011;73293;48.538;14.354;2024-02-04T14:26:15;2.20;;;1.40;;
64210;SDS011;73293;48.538;14.354;2024-02-04T14:26:59;2.40;;;1.60;;
64210;SDS011;73293;48.538;14.354;2024-02-04T14:27:32;2.10;;;1.30;;
64210;SDS011;73293;48.538;14.354;2024-02-04T14:28:06;1.90;;;1.30;;
64210;SDS011;73293;48.538;14.354;2024-02-04T14:28:40;1.80;;;1.20;;
64210;SDS011;73293;48.538;14.354;2024-02-04T14:30:04;2.60;;;1.30;;
64210;SDS011;73293;48.538;14.354;2024-02-04T14:30:40;2.30;;;1.60;;
64210;SDS011;73293;48.538;14.354;2024-02-04T14:31:15;2.60;;;1.70;;
64210;SDS011;73293;48.538;14.354;2024-02-04T14:31:49;2.40;;;1.50;;
64210;SDS011;73293;48.538;14.354;2024-02-04T14:32:24;2.30;;;1.60;;
64210;SDS011;73293;48.538;14.354;2024-02-04T14:33:45;2.60;;;1.50;;
64210;SDS011;73293;48.538;14.354;2024-02-04T14:34:21;2.80;;;1.70;;
64210;SDS011;73293;48.538;14.354;2024-02-04T14:34:56;2.60;;;1.60;;
64210;SDS011;73293;48.538;14.354;2024-02-04T14:35:31;2.40;;;1.60;;
64210;SDS011;73293;48.538;14.354;2024-02-04T14:36:06;2.30;;;1.40;;
64210;SDS011;73293;48.538;14.354;2024-02-04T14:37:27;2.10;;;1.40;;
64210;SDS011;73293;48.538;14.354;2024-02-04T14:38:02;2.10;;;1.30;;
64210;SDS011;73293;48.538;14.354;2024-02-04T14:38:36;2.20;;;1.50;;
64210;SDS011;73293;48.538;14.354;2024-02-04T14:39:12;2.00;;;1.40;;
64210;SDS011;73293;48.538;14.354;2024-02-04T14:39:48;2.70;;;1.50;;
64210;SDS011;73293;48.538;14.354;2024-02-04T14:41:08;3.80;;;1.60;;
64210;SDS011;73293;48.538;14.354;2024-02-04T14:41:43;3.20;;;1.50;;
64210;SDS011;73293;48.538;14.354;2024-02-04T14:42:18;2.00;;;1.20;;
64210;SDS011;73293;48.538;14.354;2024-02-04T14:42:54;2.40;;;1.70;;
64210;SDS011;73293;48.538;14.354;2024-02-04T14:43:28;2.30;;;1.50;;
64210;SDS011;73293;48.538;14.354;2024-02-04T14:44:50;2.60;;;1.60;;
64210;SDS011;73293;48.538;14.354;2024-02-04T14:45:24;2.30;;;1.50;;
64210;SDS011;73293;48.538;14.354;2024-02-04T14:46:00;2.40;;;1.30;;
64210;SDS011;73293;48.538;14.354;2024-02-04T14:46:36;2.20;;;1.20;;
64210;SDS011;73293;48.538;14.354;2024-02-04T14:47:13;2.40;;;1.60;;
64210;SDS011;73293;48.538;14.354;2024-02-04T14:48:36;2.80;;;2.10;;
64210;SDS011;73293;48.538;14.354;2024-02-04T14:49:16;2.30;;;1.60;;
64210;SDS011;73293;48.538;14.354;2024-02-04T14:49:51;2.70;;;1.60;;
64210;SDS011;73293;48.538;14.354;2024-02-04T14:50:25;2.90;;;1.60;;
64210;SDS011;73293;48.538;14.354;2024-02-04T14:52:12;2.30;;;1.60;;
64210;SDS011;73293;48.538;14.354;2024-02-04T14:52:48;3.20;;;1.70;;
64210;SDS011;73293;48.538;14.354;2024-02-04T14:53:21;2.60;;;1.30;;
64210;SDS011;73293;48.538;14.354;2024-02-04T14:53:57;2.30;;;1.50;;
64210;SDS011;73293;48.538;14.354;2024-02-04T14:54:32;2.30;;;1.50;;
64210;SDS011;73293;48.538;14.354;2024-02-04T14:55:54;2.40;;;1.60;;
64210;SDS011;73293;48.538;14.354;2024-02-04T14:56:29;2.70;;;1.80;;
64210;SDS011;73293;48.538;14.354;2024-02-04T14:57:05;2.50;;;1.60;;
64210;SDS011;73293;48.538;14.354;2024-02-04T14:57:39;2.20;;;1.30;;
64210;SDS011;73293;48.538;14.354;2024-02-04T14:58:13;2.30;;;1.60;;
64210;SDS011;73293;48.538;14.354;2024-02-04T14:59:34;2.30;;;1.50;;
64210;SDS011;73293;48.538;14.354;2024-02-04T15:00:11;2.20;;;1.30;;
64210;SDS011;73293;48.538;14.354;2024-02-04T15:00:48;2.20;;;1.50;;
64210;SDS011;73293;48.538;14.354;2024-02-04T15:01:24;2.00;;;1.10;;
64210;SDS011;73293;48.538;14.354;2024-02-04T15:01:59;2.60;;;1.40;;
64210;SDS011;73293;48.538;14.354;2024-02-04T15:03:19;3.00;;;1.90;;
64210;SDS011;73293;48.538;14.354;2024-02-04T15:03:55;2.30;;;1.60;;
64210;SDS011;73293;48.538;14.354;2024-02-04T15:04:32;2.50;;;1.60;;
64210;SDS011;73293;48.538;14.354;2024-02-04T15:05:08;2.40;;;1.80;;
64210;SDS011;73293;48.538;14.354;2024-02-04T15:05:45;2.50;;;1.80;;
64210;SDS011;73293;48.538;14.354;2024-02-04T15:07:05;3.00;;;1.90;;
64210;SDS011;73293;48.538;14.354;2024-02-04T15:07:40;3.30;;;1.60;;
64210;SDS011;73293;48.538;14.354;2024-02-04T15:08:15;2.50;;;1.70;;
64210;SDS011;73293;48.538;14.354;2024-02-04T15:08:51;2.90;;;1.60;;
64210;SDS011;73293;48.538;14.354;2024-02-04T15:09:32;2.20;;;1.40;;
64210;SDS011;73293;48.538;14.354;2024-02-04T15:10:53;2.70;;;1.70;;
64210;SDS011;73293;48.538;14.354;2024-02-04T15:11:27;2.40;;;1.60;;
64210;SDS011;73293;48.538;14.354;2024-02-04T15:12:02;2.40;;;1.70;;
64210;SDS011;73293;48.538;14.354;2024-02-04T15:12:37;2.40;;;1.80;;
64210;SDS011;73293;48.538;14.354;2024-02-04T15:13:12;2.30;;;1.50;;
64210;SDS011;73293;48.538;14.354;2024-02-04T15:14:33;2.40;;;1.70;;
64210;SDS011;73293;48.538;14.354;2024-02-04T15:15:08;2.60;;;1.40;;
64210;SDS011;73293;48.538;14.354;2024-02-04T15:15:42;2.40;;;1.40;;
64210;SDS011;73293;48.538;14.354;2024-02-04T15:16:16;3.30;;;1.70;;
64210;SDS011;73293;48.538;14.354;2024-02-04T15:16:51;2.10;;;1.40;;
64210;SDS011;73293;48.538;14.354;2024-02-04T15:18:13;3.20;;;1.60;;
64210;SDS011;73293;48.538;14.354;2024-02-04T15:18:47;2.20;;;1.60;;
64210;SDS011;73293;48.538;14.354;2024-02-04T15:19:26;2.30;;;1.40;;
64210;SDS011;73293;48.538;14.354;2024-02-04T15:20:06;3.40;;;2.20;;
64210;SDS011;73293;48.538;14.354;2024-02-04T15:20:42;2.70;;;1.80;;
64210;SDS011;73293;48.538;14.354;2024-02-04T15:22:02;2.60;;;1.60;;
64210;SDS011;73293;48.538;14.354;2024-02-04T15:22:38;2.40;;;1.70;;
64210;SDS011;73293;48.538;14.354;2024-02-04T15:23:15;2.40;;;1.40;;
64210;SDS011;73293;48.538;14.354;2024-02-04T15:23:50;1.80;;;1.10;;
64210;SDS011;73293;48.538;14.354;2024-02-04T15:24:25;2.10;;;1.30;;
64210;SDS011;73293;48.538;14.354;2024-02-04T15:25:45;3.30;;;1.20;;
64210;SDS011;73293;48.538;14.354;2024-02-04T15:26:24;2.00;;;1.10;;
64210;SDS011;73293;48.538;14.354;2024-02-04T15:27:01;3.20;;;1.40;;
64210;SDS011;73293;48.538;14.354;2024-02-04T15:27:38;3.00;;;1.60;;
64210;SDS011;73293;48.538;14.354;2024-02-04T15:29:24;2.00;;;1.20;;
64210;SDS011;73293;48.538;14.354;2024-02-04T15:29:59;1.80;;;1.10;;
64210;SDS011;73293;48.538;14.354;2024-02-04T15:30:33;1.90;;;1.20;;
64210;SDS011;73293;48.538;14.354;2024-02-04T15:31:08;2.50;;;1.30;;
64210;SDS011;73293;48.538;14.354;2024-02-04T15:31:43;2.30;;;1.50;;
64210;SDS011;73293;48.538;14.354;2024-02-04T15:33:04;2.30;;;1.30;;
64210;SDS011;73293;48.538;14.354;2024-02-04T15:33:40;2.80;;;1.60;;
64210;SDS011;73293;48.538;14.354;2024-02-04T15:34:16;2.20;;;1.30;;
64210;SDS011;73293;48.538;14.354;2024-02-04T15:34:50;2.30;;;1.30;;
64210;SDS011;73293;48.538;14.354;2024-02-04T15:35:26;2.00;;;1.30;;
64210;SDS011;73293;48.538;14.354;2024-02-04T15:36:46;2.20;;;1.10;;
64210;SDS011;73293;48.538;14.354;2024-02-04T15:37:21;2.50;;;1.40;;
64210;SDS011;73293;48.538;14.354;2024-02-04T15:37:56;2.50;;;1.60;;
64210;SDS011;73293;48.538;14.354;2024-02-04T15:38:32;2.00;;;1.30;;
64210;SDS011;73293;48.538;14.354;2024-02-04T15:39:10;2.70;;;1.70;;
64210;SDS011;73293;48.538;14.354;2024-02-04T15:40:32;2.30;;;1.40;;
64210;SDS011;73293;48.538;14.354;2024-02-04T15:41:05;2.30;;;1.50;;
64210;SDS011;73293;48.538;14.354;2024-02-04T15:41:39;2.20;;;1.20;;
64210;SDS011;73293;48.538;14.354;2024-02-04T15:42:13;2.50;;;1.30;;
64210;SDS011;73293;48.538;14.354;2024-02-04T15:42:47;1.90;;;1.20;;
64210;SDS011;73293;48.538;14.354;2024-02-04T15:44:10;2.20;;;1.30;;
64210;SDS011;73293;48.538;14.354;2024-02-04T15:44:48;2.50;;;1.30;;
64210;SDS011;73293;48.538;14.354;2024-02-04T15:45:22;2.20;;;1.40;;
64210;SDS011;73293;48.538;14.354;2024-02-04T15:45:59;2.20;;;1.30;;
64210;SDS011;73293;48.538;14.354;2024-02-04T15:47:50;2.40;;;1.60;;
64210;SDS011;73293;48.538;14.354;2024-02-04T15:49:03;2.20;;;1.20;;
64210;SDS011;73293;48.538;14.354;2024-02-04T15:49:43;6.20;;;1.20;;
64210;SDS011;73293;48.538;14.354;2024-02-04T15:50:18;2.10;;;1.30;;
64210;SDS011;73293;48.538;14.354;2024-02-04T15:51:39;2.50;;;1.20;;
64210;SDS011;73293;48.538;14.354;2024-02-04T15:52:13;1.90;;;1.10;;
64210;SDS011;73293;48.538;14.354;2024-02-04T15:52:48;2.60;;;1.10;;
64210;SDS011;73293;48.538;14.354;2024-02-04T15:53:23;2.30;;;1.10;;
64210;SDS011;73293;48.538;14.354;2024-02-04T15:53:58;1.90;;;1.10;;
64210;SDS011;73293;48.538;14.354;2024-02-04T15:55:21;2.00;;;1.20;;
64210;SDS011;73293;48.538;14.354;2024-02-04T15:55:56;2.20;;;1.20;;
64210;SDS011;73293;48.538;14.354;2024-02-04T15:56:30;2.10;;;1.40;;
64210;SDS011;73293;48.538;14.354;2024-02-04T15:57:08;2.30;;;1.20;;
64210;SDS011;73293;48.538;14.354;2024-02-04T15:57:52;1.90;;;1.10;;
64210;SDS011;73293;48.538;14.354;2024-02-04T15:59:14;2.40;;;1.50;;
64210;SDS011;73293;48.538;14.354;2024-02-04T15:59:55;2.40;;;1.50;;
64210;SDS011;73293;48.538;14.354;2024-02-04T16:00:39;2.50;;;1.30;;
64210;SDS011;73293;48.538;14.354;2024-02-04T16:01:14;1.90;;;1.20;;
64210;SDS011;73293;48.538;14.354;2024-02-04T16:02:51;2.40;;;1.40;;
64210;SDS011;73293;48.538;14.354;2024-02-04T16:03:26;2.60;;;1.10;;
64210;SDS011;73293;48.538;14.354;2024-02-04T16:04:08;2.50;;;1.50;;
64210;SDS011;73293;48.538;14.354;2024-02-04T16:04:43;5.40;;;3.00;;
64210;SDS011;73293;48.538;14.354;2024-02-04T16:05:20;5.90;;;3.50;;
64210;SDS011;73293;48.538;14.354;2024-02-04T16:06:41;5.30;;;3.20;;
64210;SDS011;73293;48.538;14.354;2024-02-04T16:07:15;5.80;;;3.40;;
64210;SDS011;73293;48.538;14.354;2024-02-04T16:07:49;3.00;;;1.80;;
64210;SDS011;73293;48.538;14.354;2024-02-04T16:08:23;2.10;;;1.20;;
64210;SDS011;73293;48.538;14.354;2024-02-04T16:09:01;3.10;;;1.50;;
64210;SDS011;73293;48.538;14.354;2024-02-04T16:10:27;2.40;;;1.30;;
64210;SDS011;73293;48.538;14.354;2024-02-04T16:11:04;2.60;;;1.80;;
64210;SDS011;73293;48.538;14.354;2024-02-04T16:11:43;2.70;;;1.70;;
64210;SDS011;73293;48.538;14.354;2024-02-04T16:12:25;2.20;;;1.50;;
64210;SDS011;73293;48.538;14.354;2024-02-04T16:12:59;2.80;;;1.70;;
64210;SDS011;73293;48.538;14.354;2024-02-04T16:14:23;2.30;;;1.60;;
64210;SDS011;73293;48.538;14.354;2024-02-04T16:14:58;2.50;;;1.60;;
64210;SDS011;73293;48.538;14.354;2024-02-04T16:15:37;2.30;;;1.60;;
64210;SDS011;73293;48.538;14.354;2024-02-04T16:16:19;2.30;;;1.40;;
64210;SDS011;73293;48.538;14.354;2024-02-04T16:18:03;2.80;;;1.50;;
64210;SDS011;73293;48.538;14.354;2024-02-04T16:18:37;2.50;;;1.40;;
64210;SDS011;73293;48.538;14.354;2024-02-04T16:19:12;2.30;;;1.30;;
64210;SDS011;73293;48.538;14.354;2024-02-04T16:19:47;2.10;;;1.30;;
64210;SDS011;73293;48.538;14.354;2024-02-04T16:20:22;1.70;;;1.00;;
64210;SDS011;73293;48.538;14.354;2024-02-04T16:21:44;2.20;;;1.20;;
64210;SDS011;73293;48.538;14.354;2024-02-04T16:22:18;1.90;;;1.30;;
64210;SDS011;73293;48.538;14.354;2024-02-04T16:22:53;2.20;;;1.10;;
64210;SDS011;73293;48.538;14.354;2024-02-04T16:23:27;2.60;;;1.40;;
64210;SDS011;73293;48.538;14.354;2024-02-04T16:24:02;2.00;;;1.20;;
64210;SDS011;73293;48.538;14.354;2024-02-04T16:25:24;2.00;;;1.20;;
64210;SDS011;73293;48.538;14.354;2024-02-04T16:26:14;2.40;;;1.30;;
64210;SDS011;73293;48.538;14.354;2024-02-04T16:26:48;2.10;;;1.40;;
64210;SDS011;73293;48.538;14.354;2024-02-04T16:27:22;2.30;;;1.30;;
64210;SDS011;73293;48.538;14.354;2024-02-04T16:27:55;2.40;;;1.20;;
64210;SDS011;73293;48.538;14.354;2024-02-04T16:29:13;1.90;;;1.20;;
64210;SDS011;73293;48.538;14.354;2024-02-04T16:29:47;2.00;;;1.20;;
64210;SDS011;73293;48.538;14.354;2024-02-04T16:30:20;1.90;;;1.10;;
64210;SDS011;73293;48.538;14.354;2024-02-04T16:31:01;1.90;;;1.20;;
64210;SDS011;73293;48.538;14.354;2024-02-04T16:31:36;2.00;;;1.20;;
64210;SDS011;73293;48.538;14.354;2024-02-04T16:32:59;1.80;;;1.30;;
64210;SDS011;73293;48.538;14.354;2024-02-04T16:33:35;2.10;;;1.30;;
64210;SDS011;73293;48.538;14.354;2024-02-04T16:34:09;2.30;;;1.50;;
64210;SDS011;73293;48.538;14.354;2024-02-04T16:34:45;3.20;;;1.90;;
64210;SDS011;73293;48.538;14.354;2024-02-04T16:36:36;1.70;;;1.00;;
64210;SDS011;73293;48.538;14.354;2024-02-04T16:37:10;2.30;;;1.30;;
64210;SDS011;73293;48.538;14.354;2024-02-04T16:37:44;2.80;;;1.40;;
64210;SDS011;73293;48.538;14.354;2024-02-04T16:38:17;2.70;;;1.50;;
64210;SDS011;73293;48.538;14.354;2024-02-04T16:38:51;2.10;;;1.20;;
64210;SDS011;73293;48.538;14.354;2024-02-04T16:40:15;3.20;;;1.40;;
64210;SDS011;73293;48.538;14.354;2024-02-04T16:40:52;2.70;;;1.60;;
64210;SDS011;73293;48.538;14.354;2024-02-04T16:41:26;2.10;;;1.40;;
64210;SDS011;73293;48.538;14.354;2024-02-04T16:41:59;2.30;;;1.60;;
64210;SDS011;73293;48.538;14.354;2024-02-04T16:42:33;3.10;;;1.50;;
64210;SDS011;73293;48.538;14.354;2024-02-04T16:43:58;2.10;;;1.30;;
64210;SDS011;73293;48.538;14.354;2024-02-04T16:44:32;2.70;;;1.40;;
64210;SDS011;73293;48.538;14.354;2024-02-04T16:45:06;2.30;;;1.50;;
64210;SDS011;73293;48.538;14.354;2024-02-04T16:45:42;2.30;;;1.40;;
64210;SDS011;73293;48.538;14.354;2024-02-04T16:46:16;2.80;;;1.30;;
64210;SDS011;73293;48.538;14.354;2024-02-04T16:47:33;2.00;;;1.30;;
64210;SDS011;73293;48.538;14.354;2024-02-04T16:48:08;2.30;;;1.30;;
64210;SDS011;73293;48.538;14.354;2024-02-04T16:48:43;2.20;;;1.50;;
64210;SDS011;73293;48.538;14.354;2024-02-04T16:49:17;2.30;;;1.50;;
64210;SDS011;73293;48.538;14.354;2024-02-04T16:49:57;2.00;;;1.30;;
64210;SDS011;73293;48.538;14.354;2024-02-04T16:51:16;2.10;;;1.40;;
64210;SDS011;73293;48.538;14.354;2024-02-04T16:51:50;2.10;;;1.40;;
64210;SDS011;73293;48.538;14.354;2024-02-04T16:52:24;2.10;;;1.40;;
64210;SDS011;73293;48.538;14.354;2024-02-04T16:52:59;2.20;;;1.30;;
64210;SDS011;73293;48.538;14.354;2024-02-04T16:53:34;1.90;;;1.20;;
64210;SDS011;73293;48.538;14.354;2024-02-04T16:55:01;2.20;;;1.40;;
64210;SDS011;73293;48.538;14.354;2024-02-04T16:55:35;2.30;;;1.20;;
64210;SDS011;73293;48.538;14.354;2024-02-04T16:56:08;2.10;;;1.20;;
64210;SDS011;73293;48.538;14.354;2024-02-04T16:56:42;2.80;;;1.50;;
64210;SDS011;73293;48.538;14.354;2024-02-04T16:58:32;2.40;;;1.30;;
64210;SDS011;73293;48.538;14.354;2024-02-04T16:59:06;2.60;;;1.60;;
64210;SDS011;73293;48.538;14.354;2024-02-04T16:59:44;2.30;;;1.40;;
64210;SDS011;73293;48.538;14.354;2024-02-04T17:00:22;2.00;;;1.30;;
64210;SDS011;73293;48.538;14.354;2024-02-04T17:01:02;2.20;;;1.30;;
64210;SDS011;73293;48.538;14.354;2024-02-04T17:02:20;2.40;;;1.60;;
64210;SDS011;73293;48.538;14.354;2024-02-04T17:02:56;2.00;;;1.10;;
64210;SDS011;73293;48.538;14.354;2024-02-04T17:03:30;2.90;;;1.40;;
64210;SDS011;73293;48.538;14.354;2024-02-04T17:04:04;2.10;;;1.40;;
64210;SDS011;73293;48.538;14.354;2024-02-04T17:04:40;2.20;;;1.40;;
64210;SDS011;73293;48.538;14.354;2024-02-04T17:06:22;2.00;;;1.30;;
64210;SDS011;73293;48.538;14.354;2024-02-04T17:07:00;1.90;;;1.10;;
64210;SDS011;73293;48.538;14.354;2024-02-04T17:07:34;2.10;;;1.40;;
64210;SDS011;73293;48.538;14.354;2024-02-04T17:08:11;4.00;;;1.60;;
64210;SDS011;73293;48.538;14.354;2024-02-04T17:09:48;1.90;;;1.20;;
64210;SDS011;73293;48.538;14.354;2024-02-04T17:10:26;1.90;;;1.10;;
64210;SDS011;73293;48.538;14.354;2024-02-04T17:11:01;2.00;;;1.10;;
64210;SDS011;73293;48.538;14.354;2024-02-04T17:11:35;1.90;;;1.10;;
64210;SDS011;73293;48.538;14.354;2024-02-04T17:13:41;2.30;;;1.40;;
64210;SDS011;73293;48.538;14.354;2024-02-04T17:14:15;1.90;;;1.40;;
64210;SDS011;73293;48.538;14.354;2024-02-04T17:14:52;2.20;;;1.30;;
64210;SDS011;73293;48.538;14.354;2024-02-04T17:15:27;2.00;;;1.30;;
64210;SDS011;73293;48.538;14.354;2024-02-04T17:17:24;3.00;;;1.20;;
64210;SDS011;73293;48.538;14.354;2024-02-04T17:18:04;1.60;;;1.00;;
64210;SDS011;73293;48.538;14.354;2024-02-04T17:18:48;2.10;;;1.20;;
64210;SDS011;73293;48.538;14.354;2024-02-04T17:19:39;2.50;;;1.30;;
64210;SDS011;73293;48.538;14.354;2024-02-04T17:21:08;2.90;;;1.30;;
64210;SDS011;73293;48.538;14.354;2024-02-04T17:21:42;2.20;;;1.30;;
64210;SDS011;73293;48.538;14.354;2024-02-04T17:22:19;2.30;;;1.30;;
64210;SDS011;73293;48.538;14.354;2024-02-04T17:22:58;2.20;;;1.40;;
64210;SDS011;73293;48.538;14.354;2024-02-04T17:24:49;2.10;;;1.40;;
64210;SDS011;73293;48.538;14.354;2024-02-04T17:25:25;2.60;;;1.40;;
64210;SDS011;73293;48.538;14.354;2024-02-04T17:26:04;2.30;;;1.50;;
64210;SDS011;73293;48.538;14.354;2024-02-04T17:26:39;3.00;;;1.60;;
64210;SDS011;73293;48.538;14.354;2024-02-04T17:28:24;2.60;;;1.60;;
64210;SDS011;73293;48.538;14.354;2024-02-04T17:28:59;3.90;;;1.40;;
64210;SDS011;73293;48.538;14.354;2024-02-04T17:29:33;2.70;;;1.80;;
64210;SDS011;73293;48.538;14.354;2024-02-04T17:30:08;2.30;;;1.80;;
64210;SDS011;73293;48.538;14.354;2024-02-04T17:30:44;3.50;;;1.50;;
64210;SDS011;73293;48.538;14.354;2024-02-04T17:32:04;2.50;;;1.60;;
64210;SDS011;73293;48.538;14.354;2024-02-04T17:32:43;2.40;;;1.60;;
64210;SDS011;73293;48.538;14.354;2024-02-04T17:33:19;2.20;;;1.40;;
64210;SDS011;73293;48.538;14.354;2024-02-04T17:33:53;3.50;;;1.70;;
64210;SDS011;73293;48.538;14.354;2024-02-04T17:34:27;2.60;;;1.80;;
64210;SDS011;73293;48.538;14.354;2024-02-04T17:35:48;2.60;;;1.70;;
64210;SDS011;73293;48.538;14.354;2024-02-04T17:36:22;2.70;;;1.70;;
64210;SDS011;73293;48.538;14.354;2024-02-04T17:36:56;2.10;;;1.50;;
64210;SDS011;73293;48.538;14.354;2024-02-04T17:37:33;2.50;;;1.70;;
64210;SDS011;73293;48.538;14.354;2024-02-04T17:38:07;2.50;;;1.80;;
64210;SDS011;73293;48.538;14.354;2024-02-04T17:39:27;2.60;;;1.60;;
64210;SDS011;73293;48.538;14.354;2024-02-04T17:40:03;2.30;;;1.70;;
64210;SDS011;73293;48.538;14.354;2024-02-04T17:40:39;3.30;;;1.90;;
64210;SDS011;73293;48.538;14.354;2024-02-04T17:41:15;2.90;;;1.80;;
64210;SDS011;73293;48.538;14.354;2024-02-04T17:41:49;2.60;;;1.90;;
64210;SDS011;73293;48.538;14.354;2024-02-04T17:43:13;2.60;;;1.80;;
64210;SDS011;73293;48.538;14.354;2024-02-04T17:43:48;2.30;;;1.60;;
64210;SDS011;73293;48.538;14.354;2024-02-04T17:44:21;2.80;;;1.70;;
64210;SDS011;73293;48.538;14.354;2024-02-04T17:44:55;2.30;;;1.60;;
64210;SDS011;73293;48.538;14.354;2024-02-04T17:45:29;2.30;;;1.50;;
64210;SDS011;73293;48.538;14.354;2024-02-04T17:46:52;2.50;;;1.50;;
64210;SDS011;73293;48.538;14.354;2024-02-04T17:47:27;2.70;;;1.80;;
64210;SDS011;73293;48.538;14.354;2024-02-04T17:48:03;3.80;;;2.00;;
64210;SDS011;73293;48.538;14.354;2024-02-04T17:48:38;2.60;;;1.50;;
64210;SDS011;73293;48.538;14.354;2024-02-04T17:49:14;3.60;;;1.70;;
64210;SDS011;73293;48.538;14.354;2024-02-04T17:50:36;3.60;;;2.10;;
64210;SDS011;73293;48.538;14.354;2024-02-04T17:51:10;2.80;;;2.00;;
64210;SDS011;73293;48.538;14.354;2024-02-04T17:51:50;2.40;;;1.90;;
64210;SDS011;73293;48.538;14.354;2024-02-04T17:52:23;4.90;;;2.00;;
64210;SDS011;73293;48.538;14.354;2024-02-04T17:54:14;4.00;;;1.50;;
64210;SDS011;73293;48.538;14.354;2024-02-04T17:54:48;2.30;;;1.60;;
64210;SDS011;73293;48.538;14.354;2024-02-04T17:55:22;2.10;;;1.70;;
64210;SDS011;73293;48.538;14.354;2024-02-04T17:55:56;4.80;;;2.00;;
64210;SDS011;73293;48.538;14.354;2024-02-04T17:56:30;3.80;;;1.90;;
64210;SDS011;73293;48.538;14.354;2024-02-04T17:57:55;2.90;;;1.90;;
64210;SDS011;73293;48.538;14.354;2024-02-04T17:58:33;3.10;;;1.60;;
64210;SDS011;73293;48.538;14.354;2024-02-04T17:59:07;2.60;;;1.90;;
64210;SDS011;73293;48.538;14.354;2024-02-04T17:59:41;2.40;;;1.80;;
64210;SDS011;73293;48.538;14.354;2024-02-04T18:00:16;3.10;;;2.10;;
64210;SDS011;73293;48.538;14.354;2024-02-04T18:01:41;2.50;;;1.70;;
64210;SDS011;73293;48.538;14.354;2024-02-04T18:02:15;2.50;;;1.90;;
64210;SDS011;73293;48.538;14.354;2024-02-04T18:02:56;3.10;;;2.00;;
64210;SDS011;73293;48.538;14.354;2024-02-04T18:03:31;2.80;;;1.70;;
64210;SDS011;73293;48.538;14.354;2024-02-04T18:04:07;2.60;;;1.70;;
64210;SDS011;73293;48.538;14.354;2024-02-04T18:05:28;2.40;;;1.70;;
64210;SDS011;73293;48.538;14.354;2024-02-04T18:06:04;3.60;;;2.10;;
64210;SDS011;73293;48.538;14.354;2024-02-04T18:06:38;2.10;;;1.40;;
64210;SDS011;73293;48.538;14.354;2024-02-04T18:07:12;3.20;;;1.90;;
64210;SDS011;73293;48.538;14.354;2024-02-04T18:07:46;3.30;;;1.80;;
64210;SDS011;73293;48.538;14.354;2024-02-04T18:09:08;2.70;;;1.90;;
64210;SDS011;73293;48.538;14.354;2024-02-04T18:09:43;2.80;;;2.00;;
64210;SDS011;73293;48.538;14.354;2024-02-04T18:10:17;2.50;;;1.70;;
64210;SDS011;73293;48.538;14.354;2024-02-04T18:10:51;2.70;;;2.00;;
64210;SDS011;73293;48.538;14.354;2024-02-04T18:11:25;4.00;;;1.90;;
64210;SDS011;73293;48.538;14.354;2024-02-04T18:12:49;1.90;;;1.30;;
64210;SDS011;73293;48.538;14.354;2024-02-04T18:13:23;3.20;;;1.80;;
64210;SDS011;73293;48.538;14.354;2024-02-04T18:13:57;2.90;;;1.70;;
64210;SDS011;73293;48.538;14.354;2024-02-04T18:14:32;3.50;;;2.30;;
64210;SDS011;73293;48.538;14.354;2024-02-04T18:15:06;5.80;;;3.50;;
64210;SDS011;73293;48.538;14.354;2024-02-04T18:16:31;15.20;;;6.80;;
64210;SDS011;73293;48.538;14.354;2024-02-04T18:17:04;11.50;;;5.40;;
64210;SDS011;73293;48.538;14.354;2024-02-04T18:17:42;17.50;;;7.00;;
64210;SDS011;73293;48.538;14.354;2024-02-04T18:18:16;5.80;;;2.90;;
64210;SDS011;73293;48.538;14.354;2024-02-04T18:18:50;4.80;;;2.40;;